Time;durP1;ratioP1;P1;durP2;ratioP2;P2;SDS_P1;SDS_P2;PMS_P1;PMS_P2;Temp;Humidity;BMP_temperature;BMP_pressure;BME280_temperature;BME280_humidity;BME280_pressure;Samples;Min_cycle;Max_cycle;Signal;HPM_P1;HPM_P2
2023/11/16 00:01:41;;;;;;;8.17;1.50;;;8.30;99.90;;;;;;5051096;28;21029;-68
2023/11/16 00:04:11;;;;;;;6.63;1.30;;;8.50;99.90;;;;;;5050910;28;20457;-66
2023/11/16 00:06:39;;;;;;;9.60;1.90;;;8.50;99.90;;;;;;5051227;28;20444;-68
2023/11/16 00:09:09;;;;;;;8.17;2.10;;;8.60;99.90;;;;;;5049919;28;20465;-68
2023/11/16 00:11:40;;;;;;;12.93;1.90;;;8.60;99.90;;;;;;5051258;28;20539;-68
2023/11/16 00:14:09;;;;;;;10.23;1.83;;;8.60;99.90;;;;;;5050931;28;20442;-68
2023/11/16 00:16:37;;;;;;;9.20;1.63;;;8.60;99.90;;;;;;5050780;28;20824;-69
2023/11/16 00:19:06;;;;;;;8.00;1.67;;;8.60;99.90;;;;;;5050821;28;20468;-69
2023/11/16 00:21:34;;;;;;;8.80;1.77;;;8.50;99.90;;;;;;5050852;28;20500;-67
2023/11/16 00:24:05;;;;;;;9.77;1.90;;;8.50;99.90;;;;;;5050673;28;20481;-68
2023/11/16 00:26:36;;;;;;;9.17;2.27;;;8.50;99.90;;;;;;5045131;28;20520;-68
2023/11/16 00:29:06;;;;;;;9.80;2.90;;;8.50;99.90;;;;;;5050123;28;20488;-68
2023/11/16 00:31:34;;;;;;;8.23;1.77;;;8.60;99.90;;;;;;5050369;28;20482;-68
2023/11/16 00:34:02;;;;;;;7.97;1.57;;;8.50;99.90;;;;;;5050512;28;20461;-68
2023/11/16 00:36:30;;;;;;;9.70;2.23;;;8.50;99.90;;;;;;5045313;28;20912;-68
2023/11/16 00:38:58;;;;;;;9.33;1.83;;;8.50;99.90;;;;;;5050255;28;20472;-68
2023/11/16 00:41:27;;;;;;;10.73;1.97;;;8.50;99.90;;;;;;5050419;28;20486;-67
2023/11/16 00:43:56;;;;;;;9.40;1.77;;;8.50;99.90;;;;;;5049948;28;20451;-67
2023/11/16 00:46:25;;;;;;;7.07;1.70;;;8.50;99.90;;;;;;5050412;28;20539;-68
2023/11/16 00:48:53;;;;;;;8.07;2.33;;;8.40;99.90;;;;;;5049971;28;21004;-69
2023/11/16 00:51:22;;;;;;;8.57;1.40;;;8.40;99.90;;;;;;5049984;28;20440;-68
2023/11/16 00:53:50;;;;;;;10.80;1.97;;;8.40;99.90;;;;;;5049760;28;20536;-69
2023/11/16 00:56:18;;;;;;;8.10;1.57;;;8.40;99.90;;;;;;5050336;28;20505;-69
2023/11/16 00:58:47;;;;;;;8.40;1.70;;;8.40;99.90;;;;;;5049572;28;20899;-68
2023/11/16 01:01:17;;;;;;;11.73;3.13;;;8.40;99.90;;;;;;5050040;28;20508;-69
2023/11/16 01:03:45;;;;;;;8.60;1.93;;;8.40;99.90;;;;;;5049551;28;20931;-67
2023/11/16 01:06:14;;;;;;;13.10;2.17;;;8.30;99.90;;;;;;5049958;28;20477;-67
2023/11/16 01:08:42;;;;;;;9.83;2.70;;;8.30;99.90;;;;;;5050005;28;20552;-68
2023/11/16 01:11:15;;;;;;;10.23;2.43;;;8.30;99.90;;;;;;5050070;28;20482;-67
2023/11/16 01:13:46;;;;;;;8.70;2.10;;;8.30;99.90;;;;;;5049629;28;20437;-68
2023/11/16 01:16:15;;;;;;;10.10;2.33;;;8.10;99.90;;;;;;5049586;28;20491;-68
2023/11/16 01:18:50;;;;;;;9.17;2.10;;;8.00;99.90;;;;;;5049450;28;20471;-67
2023/11/16 01:21:18;;;;;;;9.30;2.50;;;8.00;99.90;;;;;;5049585;28;20576;-67
2023/11/16 01:23:47;;;;;;;9.43;2.50;;;8.00;99.90;;;;;;5049424;28;20487;-68
2023/11/16 01:26:17;;;;;;;9.53;2.20;;;8.00;99.90;;;;;;5049404;28;21174;-69
2023/11/16 01:28:47;;;;;;;7.20;2.10;;;8.10;99.90;;;;;;5048987;28;20471;-68
2023/11/16 01:31:15;;;;;;;9.77;1.57;;;8.00;99.90;;;;;;5049530;28;20495;-68
2023/11/16 01:33:45;;;;;;;6.70;1.50;;;8.00;99.90;;;;;;5048722;28;20547;-68
2023/11/16 01:36:14;;;;;;;10.73;1.97;;;8.00;99.90;;;;;;5049468;28;20476;-67
2023/11/16 01:38:42;;;;;;;9.77;1.77;;;8.10;99.90;;;;;;5049332;28;20471;-67
2023/11/16 01:41:12;;;;;;;8.60;2.00;;;8.10;99.90;;;;;;5049331;28;20556;-68
2023/11/16 01:43:40;;;;;;;8.50;1.80;;;8.20;99.90;;;;;;5048262;28;20841;-68
2023/11/16 01:46:09;;;;;;;9.07;2.10;;;8.20;99.90;;;;;;5048993;28;20448;-68
2023/11/16 01:48:40;;;;;;;8.93;1.90;;;8.20;99.90;;;;;;5049309;28;20496;-68
2023/11/16 01:51:12;;;;;;;8.53;1.90;;;8.20;99.90;;;;;;5049065;28;20804;-67
2023/11/16 01:53:44;;;;;;;10.27;2.10;;;8.20;99.90;;;;;;5048788;28;20867;-68
2023/11/16 01:56:15;;;;;;;10.77;2.10;;;8.20;99.90;;;;;;5048836;28;20448;-67
2023/11/16 01:58:45;;;;;;;9.77;1.80;;;8.10;99.90;;;;;;5048714;28;20468;-67
2023/11/16 02:01:15;;;;;;;7.80;1.70;;;8.10;99.90;;;;;;5049100;28;20872;-68
2023/11/16 02:03:44;;;;;;;9.20;1.40;;;8.20;99.90;;;;;;5048467;28;20460;-67
2023/11/16 02:06:15;;;;;;;10.13;2.00;;;8.20;99.90;;;;;;5041081;28;20444;-68
2023/11/16 02:08:44;;;;;;;8.70;1.40;;;8.20;99.90;;;;;;5048637;28;20471;-68
2023/11/16 02:11:12;;;;;;;8.90;1.50;;;8.20;99.90;;;;;;5048653;28;20540;-68
2023/11/16 02:13:41;;;;;;;10.70;2.07;;;8.20;99.90;;;;;;5048334;28;20443;-68
2023/11/16 02:16:09;;;;;;;8.30;1.70;;;8.20;99.90;;;;;;5048525;28;20445;-68
2023/11/16 02:18:38;;;;;;;8.13;1.83;;;8.20;99.90;;;;;;5048509;28;20464;-67
2023/11/16 02:21:07;;;;;;;10.80;1.90;;;8.20;99.90;;;;;;5048413;28;21036;-67
2023/11/16 02:23:37;;;;;;;8.00;1.67;;;8.20;99.90;;;;;;5047986;28;20563;-65
2023/11/16 02:26:07;;;;;;;7.57;1.63;;;8.20;99.90;;;;;;5048332;28;20453;-67
2023/11/16 02:28:35;;;;;;;12.20;1.43;;;8.20;99.90;;;;;;5048481;28;20523;-67
2023/11/16 02:31:03;;;;;;;9.90;2.70;;;8.20;99.90;;;;;;5048408;28;20455;-67
2023/11/16 02:33:32;;;;;;;9.20;1.40;;;8.00;99.90;;;;;;5048514;28;20448;-67
2023/11/16 02:36:00;;;;;;;7.20;1.73;;;7.90;99.90;;;;;;5047998;28;20456;-65
2023/11/16 02:38:28;;;;;;;10.17;2.30;;;7.90;99.90;;;;;;5048533;28;20472;-67
2023/11/16 02:40:59;;;;;;;9.57;1.70;;;7.80;99.90;;;;;;5048492;28;20459;-68
2023/11/16 02:43:28;;;;;;;9.27;2.17;;;7.80;99.90;;;;;;5048202;28;21019;-68
2023/11/16 02:45:57;;;;;;;12.00;2.00;;;7.90;99.90;;;;;;5047875;28;20455;-68
2023/11/16 02:48:24;;;;;;;10.23;1.77;;;8.00;99.90;;;;;;5048516;28;20457;-68
2023/11/16 02:50:53;;;;;;;12.03;1.93;;;8.00;99.90;;;;;;5048336;28;20528;-69
2023/11/16 02:53:21;;;;;;;9.07;2.17;;;8.00;99.90;;;;;;5048365;28;20448;-67
2023/11/16 02:55:49;;;;;;;7.87;1.40;;;8.00;99.90;;;;;;5051159;28;20879;-67
2023/11/16 02:58:19;;;;;;;13.03;1.90;;;8.10;99.90;;;;;;5051988;28;20562;-68
2023/11/16 03:00:47;;;;;;;7.73;1.83;;;8.10;99.90;;;;;;5052023;28;20474;-66
2023/11/16 03:03:15;;;;;;;6.73;1.40;;;8.00;99.90;;;;;;5051189;28;20558;-67
2023/11/16 03:05:43;;;;;;;6.97;1.63;;;8.00;99.90;;;;;;5052024;28;20463;-68
2023/11/16 03:08:11;;;;;;;10.20;1.67;;;8.00;99.90;;;;;;5051859;28;20466;-69
2023/11/16 03:10:40;;;;;;;8.73;1.47;;;8.00;99.90;;;;;;5051983;28;20542;-67
2023/11/16 03:13:11;;;;;;;10.73;2.50;;;8.00;99.90;;;;;;5051830;28;20930;-68
2023/11/16 03:15:41;;;;;;;8.80;1.30;;;8.00;99.90;;;;;;5051535;28;20908;-67
2023/11/16 03:18:09;;;;;;;9.67;1.80;;;8.10;99.90;;;;;;5051988;28;20536;-68
2023/11/16 03:20:37;;;;;;;7.40;1.60;;;8.10;99.90;;;;;;5051863;28;20475;-68
2023/11/16 03:23:05;;;;;;;8.17;2.33;;;8.00;99.90;;;;;;5051792;28;21019;-68
2023/11/16 03:25:33;;;;;;;11.73;2.97;;;8.10;99.90;;;;;;5051484;28;20473;-67
2023/11/16 03:28:03;;;;;;;8.83;1.70;;;8.00;99.90;;;;;;5051507;28;20559;-67
2023/11/16 03:30:31;;;;;;;10.27;1.87;;;8.10;99.90;;;;;;5051779;28;20453;-67
2023/11/16 03:33:01;;;;;;;7.87;1.77;;;8.10;99.90;;;;;;5049642;28;21196;-67
2023/11/16 03:35:29;;;;;;;8.70;1.73;;;8.00;99.90;;;;;;5051461;28;20440;-68
2023/11/16 03:37:57;;;;;;;7.60;1.77;;;8.00;99.90;;;;;;5051131;28;20464;-67
2023/11/16 03:40:25;;;;;;;7.90;1.50;;;8.10;99.90;;;;;;5051532;28;20512;-68
2023/11/16 03:42:53;;;;;;;8.30;1.80;;;8.20;99.90;;;;;;5051273;28;20575;-67
2023/11/16 03:45:22;;;;;;;6.93;1.50;;;8.10;99.90;;;;;;5051079;28;20941;-68
2023/11/16 03:47:50;;;;;;;11.83;1.90;;;8.20;99.90;;;;;;5051651;28;20465;-67
2023/11/16 03:50:20;;;;;;;8.33;1.47;;;8.10;99.90;;;;;;5051764;28;20521;-67
2023/11/16 03:52:48;;;;;;;8.00;1.77;;;8.00;99.90;;;;;;5051287;28;20459;-67
2023/11/16 03:55:16;;;;;;;7.57;1.70;;;8.00;99.90;;;;;;5051058;28;20450;-68
2023/11/16 03:57:43;;;;;;;6.77;1.40;;;7.90;99.90;;;;;;5051198;28;20552;-67
2023/11/16 04:00:13;;;;;;;8.10;1.47;;;7.90;99.90;;;;;;5051223;28;20463;-68
2023/11/16 04:02:41;;;;;;;8.90;2.10;;;8.00;99.90;;;;;;5050938;28;20454;-68
2023/11/16 04:05:09;;;;;;;7.33;1.60;;;7.90;99.90;;;;;;5050780;28;20679;-66
2023/11/16 04:07:39;;;;;;;9.33;1.43;;;7.90;99.90;;;;;;5050090;28;20472;-68
2023/11/16 04:10:12;;;;;;;7.30;1.50;;;7.90;99.90;;;;;;5051133;28;20938;-67
2023/11/16 04:12:41;;;;;;;9.20;1.57;;;7.90;99.90;;;;;;5051316;28;20444;-67
2023/11/16 04:15:13;;;;;;;10.20;1.13;;;7.90;99.90;;;;;;5050966;28;20454;-67
2023/11/16 04:17:44;;;;;;;6.93;1.27;;;7.90;99.90;;;;;;5051026;28;20495;-68
2023/11/16 04:20:12;;;;;;;7.27;1.30;;;7.90;99.90;;;;;;5050885;28;20448;-66
2023/11/16 04:22:43;;;;;;;10.70;1.87;;;7.90;99.90;;;;;;5050897;28;20509;-67
2023/11/16 04:25:18;;;;;;;7.83;1.40;;;7.80;99.90;;;;;;5050541;28;20460;-67
2023/11/16 04:27:48;;;;;;;6.80;1.53;;;7.80;99.90;;;;;;5050822;28;20564;-67
2023/11/16 04:30:18;;;;;;;9.53;1.47;;;7.80;99.90;;;;;;5050932;28;20455;-67
2023/11/16 04:32:46;;;;;;;8.23;1.43;;;7.70;99.90;;;;;;5055092;28;20480;-68
2023/11/16 04:35:14;;;;;;;7.20;1.23;;;7.70;99.90;;;;;;5050347;28;20863;-68
2023/11/16 04:37:44;;;;;;;10.00;1.70;;;7.70;99.90;;;;;;5050140;28;20475;-68
2023/11/16 04:40:13;;;;;;;7.07;1.50;;;7.70;99.90;;;;;;5050273;28;20483;-68
2023/11/16 04:42:42;;;;;;;10.83;1.60;;;7.70;99.90;;;;;;5050447;28;20455;-67
2023/11/16 04:45:11;;;;;;;8.20;1.60;;;7.60;99.90;;;;;;5049890;28;20485;-67
2023/11/16 04:47:41;;;;;;;7.40;1.83;;;7.60;99.90;;;;;;5050264;28;20469;-68
2023/11/16 04:50:10;;;;;;;6.50;1.60;;;7.60;99.90;;;;;;5050052;28;20493;-67
2023/11/16 04:52:38;;;;;;;7.77;1.60;;;7.60;99.90;;;;;;5050290;28;20846;-68
2023/11/16 04:55:09;;;;;;;7.10;1.50;;;7.70;99.90;;;;;;5049693;28;20521;-68
2023/11/16 04:57:40;;;;;;;8.10;1.33;;;7.80;99.90;;;;;;5049823;28;20651;-68
2023/11/16 05:00:11;;;;;;;10.90;2.40;;;8.00;99.90;;;;;;5049876;28;20495;-67
2023/11/16 05:02:40;;;;;;;9.00;2.00;;;7.90;99.90;;;;;;5050016;28;20440;-67
2023/11/16 05:05:08;;;;;;;6.70;1.53;;;7.90;99.90;;;;;;5049619;28;20488;-66
2023/11/16 05:07:36;;;;;;;8.20;1.70;;;7.80;99.90;;;;;;5053268;28;20464;-67
2023/11/16 05:10:07;;;;;;;6.87;1.87;;;7.70;99.90;;;;;;5049932;28;20456;-68
2023/11/16 05:12:39;;;;;;;9.43;1.40;;;7.70;99.90;;;;;;5049875;28;21293;-68
2023/11/16 05:15:08;;;;;;;9.40;1.57;;;7.60;99.90;;;;;;5049581;28;20820;-68
2023/11/16 05:17:36;;;;;;;7.47;1.30;;;7.70;99.90;;;;;;5049578;28;20472;-66
2023/11/16 05:20:05;;;;;;;12.37;2.03;;;7.60;99.90;;;;;;5049690;28;20531;-68
2023/11/16 05:22:33;;;;;;;7.70;1.70;;;7.60;99.90;;;;;;5049555;28;20894;-67
2023/11/16 05:25:01;;;;;;;7.40;1.60;;;7.60;99.90;;;;;;5049268;28;20490;-68
2023/11/16 05:27:29;;;;;;;7.90;1.87;;;7.60;99.90;;;;;;5049541;28;20517;-71
2023/11/16 05:29:59;;;;;;;7.87;1.60;;;7.70;99.90;;;;;;5049586;28;20507;-69
2023/11/16 05:32:27;;;;;;;11.30;2.30;;;7.70;99.90;;;;;;5046994;28;20455;-68
2023/11/16 05:34:55;;;;;;;8.20;1.70;;;7.80;99.90;;;;;;5046030;28;20429;-68
2023/11/16 05:37:23;;;;;;;9.70;1.63;;;7.70;99.90;;;;;;5048864;28;21246;-68
2023/11/16 05:39:51;;;;;;;8.30;1.97;;;7.70;99.90;;;;;;5049452;28;20457;-68
2023/11/16 05:42:19;;;;;;;7.13;1.60;;;7.70;99.90;;;;;;5049420;28;20444;-68
2023/11/16 05:44:48;;;;;;;6.57;1.30;;;7.70;99.90;;;;;;5049153;28;20490;-68
2023/11/16 05:47:17;;;;;;;7.00;1.77;;;7.70;99.90;;;;;;5035673;28;20860;-70
2023/11/16 05:49:45;;;;;;;8.70;2.10;;;7.70;99.90;;;;;;5047578;28;20524;-69
2023/11/16 05:52:13;;;;;;;8.83;2.00;;;7.80;99.90;;;;;;5048347;28;20440;-68
2023/11/16 05:54:41;;;;;;;9.27;2.20;;;7.80;99.90;;;;;;5049181;28;20527;-69
2023/11/16 05:57:09;;;;;;;6.80;1.70;;;7.70;99.90;;;;;;5048236;28;20443;-69
2023/11/16 05:59:37;;;;;;;10.47;1.50;;;7.60;99.90;;;;;;5048415;28;20453;-69
2023/11/16 06:02:05;;;;;;;8.20;2.37;;;7.50;99.90;;;;;;5048315;28;20440;-69
2023/11/16 06:04:35;;;;;;;8.70;1.90;;;7.60;99.90;;;;;;5048120;28;20563;-70
2023/11/16 06:07:03;;;;;;;11.00;2.30;;;7.60;99.90;;;;;;5047894;28;20965;-70
2023/11/16 06:09:30;;;;;;;11.33;2.20;;;7.60;99.90;;;;;;5048049;28;20988;-70
2023/11/16 06:12:01;;;;;;;8.87;2.20;;;7.60;99.90;;;;;;5047498;28;20457;-68
2023/11/16 06:14:31;;;;;;;10.30;2.40;;;7.50;99.90;;;;;;5048836;28;21088;-69
2023/11/16 06:17:13;;;;;;;9.47;2.47;;;7.50;99.90;;;;;;5048695;28;20444;-69
2023/11/16 06:19:42;;;;;;;9.20;2.33;;;7.50;99.90;;;;;;5049271;28;20527;-69
2023/11/16 06:22:11;;;;;;;8.27;2.13;;;7.50;99.90;;;;;;5051425;28;20452;-68
2023/11/16 06:24:39;;;;;;;8.10;2.20;;;7.40;99.90;;;;;;5053253;28;20588;-67
2023/11/16 06:27:07;;;;;;;8.30;2.70;;;7.40;99.90;;;;;;5048570;28;20450;-69
2023/11/16 06:29:35;;;;;;;7.57;2.43;;;7.40;99.90;;;;;;5048381;28;20477;-70
2023/11/16 06:32:05;;;;;;;7.00;1.90;;;7.30;99.90;;;;;;5048724;28;20452;-68
2023/11/16 06:34:33;;;;;;;15.90;2.80;;;7.30;99.90;;;;;;5048300;28;20448;-68
2023/11/16 06:37:04;;;;;;;9.80;2.80;;;7.30;99.90;;;;;;5048337;28;20537;-70
2023/11/16 06:39:32;;;;;;;13.23;2.73;;;7.30;99.90;;;;;;5048510;28;20448;-69
2023/11/16 06:42:01;;;;;;;10.23;2.40;;;7.40;99.90;;;;;;5048190;28;20448;-69
2023/11/16 06:44:29;;;;;;;11.70;2.43;;;7.40;99.90;;;;;;5048195;28;20487;-69
2023/11/16 06:46:57;;;;;;;9.93;2.73;;;7.30;99.90;;;;;;5048015;28;20453;-68
2023/11/16 06:49:27;;;;;;;10.67;3.30;;;7.30;99.90;;;;;;5048500;28;20448;-68
2023/11/16 06:51:55;;;;;;;9.63;3.30;;;7.30;99.90;;;;;;5048332;28;20444;-69
2023/11/16 06:54:31;;;;;;;8.53;2.53;;;7.20;99.90;;;;;;5048132;28;20845;-68
2023/11/16 06:57:02;;;;;;;8.53;2.80;;;7.20;99.90;;;;;;5048201;28;20480;-69
2023/11/16 06:59:30;;;;;;;12.77;2.60;;;7.10;99.90;;;;;;5048191;28;20514;-71
2023/11/16 07:01:58;;;;;;;9.07;2.80;;;7.00;99.90;;;;;;5048355;28;20444;-68
2023/11/16 07:04:27;;;;;;;9.40;2.47;;;6.90;99.90;;;;;;5047758;28;20661;-69
2023/11/16 07:06:55;;;;;;;10.27;2.70;;;6.90;99.90;;;;;;5047898;28;20465;-69
2023/11/16 07:09:27;;;;;;;8.60;2.63;;;6.80;99.90;;;;;;5048529;28;20863;-68
2023/11/16 07:11:55;;;;;;;10.10;2.53;;;6.90;99.90;;;;;;5048310;28;20487;-69
2023/11/16 07:14:23;;;;;;;8.23;2.97;;;6.80;99.90;;;;;;5048159;28;20445;-69
2023/11/16 07:16:53;;;;;;;10.33;3.67;;;6.90;99.90;;;;;;5048215;28;20451;-69
2023/11/16 07:19:21;;;;;;;10.57;3.00;;;7.10;99.90;;;;;;5047996;28;20957;-70
2023/11/16 07:21:51;;;;;;;11.10;4.27;;;7.20;99.90;;;;;;5048060;28;20448;-69
2023/11/16 07:24:19;;;;;;;9.00;2.67;;;7.20;99.90;;;;;;5047777;28;20523;-69
2023/11/16 07:26:48;;;;;;;9.17;2.73;;;7.20;99.90;;;;;;5047980;28;20448;-70
2023/11/16 07:29:17;;;;;;;10.47;3.40;;;7.30;99.90;;;;;;5047932;28;21000;-69
2023/11/16 07:31:45;;;;;;;13.03;3.17;;;7.40;99.90;;;;;;5048452;28;20445;-69
2023/11/16 07:34:14;;;;;;;12.93;3.50;;;7.40;99.90;;;;;;5047663;28;20971;-70
2023/11/16 07:36:42;;;;;;;10.80;3.70;;;7.50;99.90;;;;;;5044416;28;20840;-70
2023/11/16 07:39:12;;;;;;;11.23;3.17;;;7.60;99.90;;;;;;5042940;28;20454;-69
2023/11/16 07:41:40;;;;;;;12.17;3.17;;;7.60;99.90;;;;;;5044299;28;20447;-68
2023/11/16 07:44:10;;;;;;;9.70;3.60;;;7.50;99.90;;;;;;5047640;28;20447;-68
2023/11/16 07:46:38;;;;;;;10.27;3.57;;;7.50;99.90;;;;;;5047937;28;20910;-67
2023/11/16 07:49:08;;;;;;;8.60;2.93;;;7.60;99.90;;;;;;5046123;28;20466;-67
2023/11/16 07:51:39;;;;;;;12.00;3.70;;;7.60;99.90;;;;;;5048251;28;20447;-66
2023/11/16 07:54:07;;;;;;;11.87;3.50;;;7.60;99.90;;;;;;5047396;28;20446;-65
2023/11/16 07:56:36;;;;;;;9.10;3.17;;;7.70;99.90;;;;;;5051307;28;20464;-69
2023/11/16 07:59:08;;;;;;;11.17;3.00;;;7.70;99.90;;;;;;5051570;28;20553;-69
2023/11/16 08:01:49;;;;;;;8.07;2.80;;;7.70;99.90;;;;;;5051452;28;21175;-69
2023/11/16 08:04:18;;;;;;;8.90;2.67;;;7.60;99.90;;;;;;5051016;28;20453;-67
2023/11/16 08:06:46;;;;;;;10.73;2.70;;;7.70;99.90;;;;;;5051346;28;20484;-67
2023/11/16 08:09:15;;;;;;;10.10;2.80;;;7.70;99.90;;;;;;5050459;28;20557;-68
2023/11/16 08:11:53;;;;;;;10.63;3.20;;;7.90;99.90;;;;;;5052274;28;20541;-67
2023/11/16 08:14:24;;;;;;;10.00;3.70;;;8.00;99.90;;;;;;5042365;28;20476;-68
2023/11/16 08:16:56;;;;;;;10.40;3.40;;;8.00;99.90;;;;;;5044724;28;20434;-68
2023/11/16 08:19:25;;;;;;;9.10;3.43;;;8.00;99.90;;;;;;5043356;28;20439;-69
2023/11/16 08:21:55;;;;;;;10.50;3.93;;;8.00;99.90;;;;;;5047136;28;20453;-67
2023/11/16 08:24:25;;;;;;;10.80;3.73;;;8.10;99.90;;;;;;5050485;28;20503;-68
2023/11/16 08:26:56;;;;;;;10.80;3.37;;;8.20;99.90;;;;;;5050156;28;20536;-69
2023/11/16 08:29:24;;;;;;;9.83;3.47;;;8.30;99.90;;;;;;5050588;28;20469;-68
2023/11/16 08:31:56;;;;;;;10.07;4.10;;;8.30;99.90;;;;;;5051692;28;20483;-68
2023/11/16 08:34:27;;;;;;;10.10;3.70;;;8.50;99.90;;;;;;5050731;28;20447;-69
2023/11/16 08:36:56;;;;;;;10.47;4.40;;;8.50;99.90;;;;;;5050698;28;20533;-67
2023/11/16 08:39:26;;;;;;;15.07;6.17;;;8.50;99.90;;;;;;5050741;28;20451;-69
2023/11/16 08:41:54;;;;;;;11.43;5.27;;;8.60;99.90;;;;;;5050982;28;20477;-69
2023/11/16 08:44:22;;;;;;;15.97;5.40;;;8.60;99.90;;;;;;5050397;28;20456;-69
2023/11/16 08:46:56;;;;;;;12.97;5.13;;;8.80;99.90;;;;;;5049762;28;20545;-70
2023/11/16 08:49:25;;;;;;;10.83;4.07;;;8.90;99.90;;;;;;5050127;28;20467;-67
2023/11/16 08:51:58;;;;;;;11.80;4.67;;;8.90;99.90;;;;;;5050344;28;20439;-68
2023/11/16 08:54:28;;;;;;;10.67;4.50;;;8.90;99.90;;;;;;5046975;28;20453;-69
2023/11/16 08:56:57;;;;;;;12.67;5.23;;;8.90;99.90;;;;;;5041787;28;20547;-69
2023/11/16 08:59:26;;;;;;;9.97;4.03;;;9.00;99.90;;;;;;5042378;28;20469;-68
2023/11/16 09:01:55;;;;;;;13.93;3.77;;;9.20;99.90;;;;;;5034982;28;20482;-69
2023/11/16 09:04:24;;;;;;;12.30;4.13;;;9.30;99.90;;;;;;5047691;28;20444;-69
2023/11/16 09:06:54;;;;;;;14.17;4.47;;;9.50;99.90;;;;;;5047391;28;20588;-69
2023/11/16 09:09:37;;;;;;;10.67;4.20;;;9.60;99.90;;;;;;5047587;28;20920;-68
2023/11/16 09:12:12;;;;;;;10.40;3.80;;;9.80;99.90;;;;;;5047363;28;20869;-68
2023/11/16 09:14:41;;;;;;;11.87;4.43;;;9.90;99.90;;;;;;5041890;28;20491;-68
2023/11/16 09:17:17;;;;;;;11.63;4.20;;;9.90;99.90;;;;;;5046726;28;20444;-68
2023/11/16 09:19:46;;;;;;;10.90;3.80;;;9.90;99.90;;;;;;5047276;28;21012;-68
2023/11/16 09:22:17;;;;;;;12.33;3.90;;;10.00;99.90;;;;;;5047441;28;20880;-69
2023/11/16 09:24:48;;;;;;;10.33;4.53;;;10.10;99.90;;;;;;5047121;28;20444;-68
2023/11/16 09:27:17;;;;;;;12.80;3.43;;;10.20;99.90;;;;;;5046718;28;20842;-69
2023/11/16 09:29:51;;;;;;;9.70;3.43;;;10.40;99.90;;;;;;5047104;28;20461;-70
2023/11/16 09:32:20;;;;;;;11.20;3.73;;;10.50;99.90;;;;;;5047970;28;20474;-68
2023/11/16 09:34:53;;;;;;;8.90;3.70;;;10.60;99.90;;;;;;5047624;28;20449;-68
2023/11/16 09:37:35;;;;;;;8.27;3.00;;;10.70;99.90;;;;;;5047581;28;20466;-68
2023/11/16 09:40:08;;;;;;;8.70;2.60;;;10.90;99.90;;;;;;5048009;28;20447;-68
2023/11/16 09:42:37;;;;;;;11.50;2.67;;;10.90;99.90;;;;;;5048140;28;21158;-69
2023/11/16 09:45:07;;;;;;;10.53;2.67;;;10.90;99.90;;;;;;5047282;28;21011;-69
2023/11/16 09:47:42;;;;;;;9.43;2.70;;;11.00;99.90;;;;;;5047568;28;20579;-70
2023/11/16 09:50:10;;;;;;;10.80;2.70;;;11.00;99.90;;;;;;5047953;28;20453;-70
2023/11/16 09:52:41;;;;;;;9.97;2.30;;;10.90;99.90;;;;;;5047933;28;20444;-70
2023/11/16 09:55:16;;;;;;;9.83;2.43;;;10.90;99.90;;;;;;5047492;28;20952;-70
2023/11/16 09:57:45;;;;;;;8.60;1.93;;;11.00;99.90;;;;;;5047506;28;20992;-70
2023/11/16 10:00:15;;;;;;;10.00;3.30;;;10.90;99.90;;;;;;5047108;28;20463;-68
2023/11/16 10:02:45;;;;;;;9.70;2.27;;;10.90;99.90;;;;;;5047764;28;20445;-69
2023/11/16 10:05:22;;;;;;;10.80;2.47;;;11.00;99.90;;;;;;5046730;28;20470;-68
2023/11/16 10:07:53;;;;;;;10.27;2.73;;;11.00;99.90;;;;;;5047398;28;20491;-68
2023/11/16 10:10:22;;;;;;;8.87;2.40;;;10.90;99.90;;;;;;5048479;28;20972;-69
2023/11/16 10:12:50;;;;;;;9.63;2.13;;;10.90;99.90;;;;;;5048636;28;20539;-71
2023/11/16 10:15:20;;;;;;;11.30;2.73;;;10.90;99.90;;;;;;5047232;28;20468;-75
2023/11/16 10:17:48;;;;;;;9.77;2.50;;;10.80;99.90;;;;;;5047608;28;20470;-70
2023/11/16 10:20:17;;;;;;;11.87;2.47;;;10.80;99.90;;;;;;5049005;28;21141;-69
2023/11/16 10:22:46;;;;;;;9.47;2.10;;;10.80;99.90;;;;;;5049393;28;20442;-69
2023/11/16 10:25:17;;;;;;;12.10;2.20;;;10.80;99.90;;;;;;5048916;28;20977;-69
2023/11/16 10:27:46;;;;;;;10.47;2.33;;;10.80;99.90;;;;;;5047273;28;20539;-68
2023/11/16 10:30:16;;;;;;;6.90;2.10;;;10.90;99.90;;;;;;5042796;28;20820;-70
2023/11/16 10:32:46;;;;;;;9.30;2.07;;;10.80;99.90;;;;;;5045350;28;20541;-69
2023/11/16 10:35:17;;;;;;;10.60;2.30;;;10.70;99.90;;;;;;5045076;28;20442;-69
2023/11/16 10:37:46;;;;;;;10.00;2.33;;;10.70;99.90;;;;;;5046419;28;21252;-69
2023/11/16 10:40:17;;;;;;;8.30;2.00;;;10.70;99.90;;;;;;5043009;28;20445;-69
2023/11/16 10:42:45;;;;;;;8.00;2.30;;;10.70;99.90;;;;;;5047152;28;20463;-68
2023/11/16 10:45:14;;;;;;;8.97;2.40;;;10.70;99.90;;;;;;5043375;28;20444;-69
2023/11/16 10:47:44;;;;;;;9.43;2.30;;;10.70;99.90;;;;;;5046433;28;20494;-68
2023/11/16 10:50:15;;;;;;;9.80;2.60;;;10.60;99.90;;;;;;5045414;28;20449;-69
2023/11/16 10:52:44;;;;;;;12.03;3.07;;;10.60;99.90;;;;;;5042264;28;20455;-68
2023/11/16 10:55:19;;;;;;;10.53;3.00;;;10.50;99.90;;;;;;5033238;28;20470;-67
2023/11/16 10:57:52;;;;;;;12.40;2.97;;;10.50;99.90;;;;;;5045748;28;20518;-67
2023/11/16 11:00:22;;;;;;;8.73;3.20;;;10.60;99.90;;;;;;5047173;28;21183;-67
2023/11/16 11:02:51;;;;;;;11.83;2.93;;;10.70;99.90;;;;;;5043013;28;20454;-67
2023/11/16 11:05:21;;;;;;;10.30;3.23;;;10.70;99.90;;;;;;5045828;28;20926;-68
2023/11/16 11:07:54;;;;;;;9.37;3.10;;;10.60;99.90;;;;;;5048257;28;20571;-68
2023/11/16 11:10:23;;;;;;;9.67;3.13;;;10.60;99.90;;;;;;5046708;28;20471;-68
2023/11/16 11:12:53;;;;;;;11.00;2.63;;;10.60;99.90;;;;;;5048569;28;20453;-68
2023/11/16 11:15:25;;;;;;;10.20;2.60;;;10.60;99.90;;;;;;5039842;28;20460;-69
2023/11/16 11:17:54;;;;;;;10.37;3.10;;;10.60;99.90;;;;;;5043496;28;20473;-69
2023/11/16 11:20:31;;;;;;;8.60;2.57;;;10.50;99.90;;;;;;5050430;28;20865;-67
2023/11/16 11:23:09;;;;;;;9.73;2.73;;;10.50;99.90;;;;;;5051190;28;20552;-69
2023/11/16 11:25:37;;;;;;;12.97;3.00;;;10.60;99.90;;;;;;5045326;28;20850;-69
2023/11/16 11:28:08;;;;;;;9.27;2.60;;;10.60;99.90;;;;;;5050938;28;20489;-70
2023/11/16 11:30:38;;;;;;;10.80;2.30;;;10.60;99.90;;;;;;5045302;28;20490;-70
2023/11/16 11:33:14;;;;;;;9.53;2.80;;;10.80;99.90;;;;;;5050324;28;20447;-70
2023/11/16 11:35:49;;;;;;;10.40;3.23;;;11.00;99.90;;;;;;5050206;28;20451;-70
2023/11/16 11:38:19;;;;;;;8.93;2.53;;;11.40;99.90;;;;;;5049910;28;20577;-69
2023/11/16 11:40:52;;;;;;;9.73;2.80;;;11.70;99.90;;;;;;5050348;28;20450;-69
2023/11/16 11:43:24;;;;;;;10.83;4.03;;;12.00;99.90;;;;;;5050387;28;20854;-70
2023/11/16 11:45:53;;;;;;;12.57;3.90;;;12.20;99.90;;;;;;5050136;28;20454;-71
2023/11/16 11:48:22;;;;;;;13.50;4.73;;;12.20;99.90;;;;;;5050008;28;21163;-70
2023/11/16 11:50:56;;;;;;;11.97;5.03;;;12.30;99.90;;;;;;5050691;28;20462;-69
2023/11/16 11:53:29;;;;;;;12.97;5.87;;;12.20;99.90;;;;;;5050175;28;20451;-68
2023/11/16 11:55:57;;;;;;;13.77;5.60;;;12.30;99.90;;;;;;5050003;28;20487;-70
2023/11/16 11:58:26;;;;;;;12.87;5.73;;;12.40;99.90;;;;;;5049454;28;20492;-70
2023/11/16 12:00:56;;;;;;;15.40;6.07;;;12.40;99.90;;;;;;5050215;28;20566;-69
2023/11/16 12:03:24;;;;;;;11.97;5.90;;;12.40;99.90;;;;;;5049656;28;20506;-70
2023/11/16 12:05:58;;;;;;;13.50;4.60;;;12.30;99.90;;;;;;5049906;28;20443;-71
2023/11/16 12:08:38;;;;;;;13.13;6.13;;;12.10;99.90;;;;;;5047529;28;20492;-70
2023/11/16 12:11:09;;;;;;;11.70;4.90;;;12.10;99.90;;;;;;5050731;28;20469;-73
2023/11/16 12:13:40;;;;;;;13.20;4.57;;;12.00;99.90;;;;;;5043541;28;20452;-71
2023/11/16 12:16:12;;;;;;;11.00;3.93;;;11.90;99.90;;;;;;5036836;28;20539;-72
2023/11/16 12:18:44;;;;;;;10.90;3.40;;;11.80;99.90;;;;;;5043314;28;20493;-71
2023/11/16 12:21:15;;;;;;;10.30;3.80;;;11.60;99.90;;;;;;5051872;28;20439;-73
2023/11/16 12:23:44;;;;;;;10.50;4.10;;;11.40;99.90;;;;;;5045682;28;20474;-74
2023/11/16 12:26:12;;;;;;;11.30;3.30;;;11.30;99.90;;;;;;5046062;28;20478;-73
2023/11/16 12:28:42;;;;;;;11.50;3.20;;;11.40;99.90;;;;;;5041938;28;20489;-73
2023/11/16 12:31:11;;;;;;;10.50;2.83;;;11.40;99.90;;;;;;5044927;28;20450;-73
2023/11/16 12:33:40;;;;;;;13.03;2.93;;;11.40;99.90;;;;;;5048537;28;21153;-75
2023/11/16 12:36:11;;;;;;;9.33;3.37;;;11.30;99.90;;;;;;5048613;28;20443;-70
2023/11/16 12:38:41;;;;;;;8.50;2.53;;;11.30;99.90;;;;;;5042992;28;20906;-69
2023/11/16 12:41:10;;;;;;;9.93;2.70;;;11.30;99.90;;;;;;5040534;28;20453;-70
2023/11/16 12:43:38;;;;;;;11.40;2.30;;;11.20;99.90;;;;;;5041414;28;20476;-71
2023/11/16 12:46:07;;;;;;;11.53;2.63;;;11.00;99.90;;;;;;5041019;28;20889;-70
2023/11/16 12:48:35;;;;;;;12.40;2.90;;;10.80;99.90;;;;;;5039598;28;20496;-69
2023/11/16 12:51:04;;;;;;;10.37;3.90;;;10.50;99.90;;;;;;5042895;28;20448;-68
2023/11/16 12:53:32;;;;;;;8.93;2.70;;;10.20;99.90;;;;;;5048011;28;20452;-70
2023/11/16 12:56:00;;;;;;;12.07;3.33;;;10.00;99.90;;;;;;5045441;28;20449;-69
2023/11/16 12:58:28;;;;;;;10.87;4.47;;;9.90;99.90;;;;;;5045173;28;20475;-69
2023/11/16 13:00:57;;;;;;;11.40;3.90;;;9.80;99.90;;;;;;5044727;28;20451;-69
2023/11/16 13:03:30;;;;;;;11.10;3.03;;;9.70;99.90;;;;;;5048191;28;20486;-68